sensor_id;sensor_type;location;lat;lon;timestamp;P1;durP1;ratioP1;P2;durP2;ratioP2
71626;SDS011;59475;52.464;13.590;2023-03-20T00:01:27;8.37;;;5.17;;
71626;SDS011;59475;52.464;13.590;2023-03-20T00:03:54;7.22;;;4.63;;
71626;SDS011;59475;52.464;13.590;2023-03-20T00:06:22;5.95;;;4.50;;
71626;SDS011;59475;52.464;13.590;2023-03-20T00:08:49;7.28;;;4.65;;
71626;SDS011;59475;52.464;13.590;2023-03-20T00:11:31;5.78;;;4.78;;
71626;SDS011;59475;52.464;13.590;2023-03-20T00:13:59;7.43;;;4.77;;
71626;SDS011;59475;52.464;13.590;2023-03-20T00:16:31;5.65;;;4.50;;
71626;SDS011;59475;52.464;13.590;2023-03-20T00:19:00;6.80;;;4.70;;
71626;SDS011;59475;52.464;13.590;2023-03-20T00:21:27;8.02;;;4.95;;
71626;SDS011;59475;52.464;13.590;2023-03-20T00:23:53;6.17;;;4.27;;
71626;SDS011;59475;52.464;13.590;2023-03-20T00:26:19;6.00;;;4.30;;
71626;SDS011;59475;52.464;13.590;2023-03-20T00:28:47;6.78;;;4.60;;
71626;SDS011;59475;52.464;13.590;2023-03-20T00:31:21;7.90;;;4.90;;
71626;SDS011;59475;52.464;13.590;2023-03-20T00:33:50;6.55;;;4.57;;
71626;SDS011;59475;52.464;13.590;2023-03-20T00:36:16;7.15;;;4.95;;
71626;SDS011;59475;52.464;13.590;2023-03-20T00:38:41;7.67;;;4.47;;
71626;SDS011;59475;52.464;13.590;2023-03-20T00:41:26;7.35;;;4.90;;
71626;SDS011;59475;52.464;13.590;2023-03-20T00:43:56;6.78;;;4.90;;
71626;SDS011;59475;52.464;13.590;2023-03-20T00:46:24;7.80;;;4.80;;
71626;SDS011;59475;52.464;13.590;2023-03-20T00:48:50;6.15;;;4.65;;
71626;SDS011;59475;52.464;13.590;2023-03-20T00:51:16;6.35;;;5.10;;
71626;SDS011;59475;52.464;13.590;2023-03-20T00:53:42;8.50;;;4.50;;
71626;SDS011;59475;52.464;13.590;2023-03-20T00:56:15;5.53;;;4.70;;
71626;SDS011;59475;52.464;13.590;2023-03-20T00:58:54;5.60;;;4.68;;
71626;SDS011;59475;52.464;13.590;2023-03-20T01:01:20;6.43;;;4.87;;
71626;SDS011;59475;52.464;13.590;2023-03-20T01:03:45;6.90;;;4.73;;
71626;SDS011;59475;52.464;13.590;2023-03-20T01:06:11;8.52;;;5.30;;
71626;SDS011;59475;52.464;13.590;2023-03-20T01:08:37;6.77;;;5.00;;
71626;SDS011;59475;52.464;13.590;2023-03-20T01:11:03;6.32;;;5.05;;
71626;SDS011;59475;52.464;13.590;2023-03-20T01:13:29;7.03;;;5.33;;
71626;SDS011;59475;52.464;13.590;2023-03-20T01:15:56;6.55;;;4.85;;
71626;SDS011;59475;52.464;13.590;2023-03-20T01:18:23;9.32;;;5.85;;
71626;SDS011;59475;52.464;13.590;2023-03-20T01:20:50;7.80;;;5.72;;
71626;SDS011;59475;52.464;13.590;2023-03-20T01:23:19;7.75;;;5.50;;
71626;SDS011;59475;52.464;13.590;2023-03-20T01:25:47;7.47;;;5.60;;
71626;SDS011;59475;52.464;13.590;2023-03-20T01:28:21;6.93;;;5.07;;
71626;SDS011;59475;52.464;13.590;2023-03-20T01:30:47;9.23;;;5.45;;
71626;SDS011;59475;52.464;13.590;2023-03-20T01:33:20;9.70;;;5.18;;
71626;SDS011;59475;52.464;13.590;2023-03-20T01:35:46;7.80;;;5.23;;
71626;SDS011;59475;52.464;13.590;2023-03-20T01:38:21;8.63;;;5.13;;
71626;SDS011;59475;52.464;13.590;2023-03-20T01:43:32;8.93;;;5.43;;
71626;SDS011;59475;52.464;13.590;2023-03-20T01:46:03;8.07;;;5.47;;
71626;SDS011;59475;52.464;13.590;2023-03-20T01:51:16;8.13;;;5.68;;
71626;SDS011;59475;52.464;13.590;2023-03-20T01:53:42;9.77;;;6.30;;
71626;SDS011;59475;52.464;13.590;2023-03-20T01:56:11;8.13;;;5.93;;
71626;SDS011;59475;52.464;13.590;2023-03-20T01:58:40;12.18;;;6.03;;
71626;SDS011;59475;52.464;13.590;2023-03-20T02:01:10;7.37;;;5.80;;
71626;SDS011;59475;52.464;13.590;2023-03-20T02:03:37;7.22;;;5.50;;
71626;SDS011;59475;52.464;13.590;2023-03-20T02:06:06;7.57;;;6.03;;
71626;SDS011;59475;52.464;13.590;2023-03-20T02:08:35;8.60;;;5.82;;
71626;SDS011;59475;52.464;13.590;2023-03-20T02:11:05;10.10;;;6.32;;
71626;SDS011;59475;52.464;13.590;2023-03-20T02:13:31;9.57;;;6.53;;
71626;SDS011;59475;52.464;13.590;2023-03-20T02:18:28;8.30;;;5.80;;
71626;SDS011;59475;52.464;13.590;2023-03-20T02:32:28;7.72;;;6.25;;
71626;SDS011;59475;52.464;13.590;2023-03-20T02:40:46;10.13;;;7.40;;
71626;SDS011;59475;52.464;13.590;2023-03-20T02:43:42;12.45;;;8.35;;
71626;SDS011;59475;52.464;13.590;2023-03-20T02:48:56;12.77;;;9.35;;
71626;SDS011;59475;52.464;13.590;2023-03-20T02:56:58;14.18;;;9.55;;
71626;SDS011;59475;52.464;13.590;2023-03-20T03:02:25;15.52;;;10.20;;
71626;SDS011;59475;52.464;13.590;2023-03-20T03:04:57;13.97;;;10.03;;
71626;SDS011;59475;52.464;13.590;2023-03-20T03:07:25;15.02;;;10.80;;
71626;SDS011;59475;52.464;13.590;2023-03-20T03:09:58;12.73;;;10.32;;
71626;SDS011;59475;52.464;13.590;2023-03-20T03:12:39;15.52;;;11.10;;
71626;SDS011;59475;52.464;13.590;2023-03-20T03:15:27;15.02;;;10.43;;
71626;SDS011;59475;52.464;13.590;2023-03-20T03:17:57;15.13;;;10.30;;
71626;SDS011;59475;52.464;13.590;2023-03-20T03:20:30;16.17;;;10.68;;
71626;SDS011;59475;52.464;13.590;2023-03-20T03:23:01;13.82;;;10.25;;
71626;SDS011;59475;52.464;13.590;2023-03-20T03:25:28;12.93;;;10.03;;
71626;SDS011;59475;52.464;13.590;2023-03-20T03:28:01;14.40;;;10.85;;
71626;SDS011;59475;52.464;13.590;2023-03-20T03:30:34;14.75;;;9.63;;
71626;SDS011;59475;52.464;13.590;2023-03-20T03:33:08;13.98;;;10.00;;
71626;SDS011;59475;52.464;13.590;2023-03-20T03:35:45;12.15;;;9.55;;
71626;SDS011;59475;52.464;13.590;2023-03-20T03:43:44;12.40;;;9.00;;
71626;SDS011;59475;52.464;13.590;2023-03-20T03:46:23;11.80;;;9.40;;
71626;SDS011;59475;52.464;13.590;2023-03-20T03:48:57;11.65;;;9.50;;
71626;SDS011;59475;52.464;13.590;2023-03-20T03:51:24;13.70;;;9.37;;
71626;SDS011;59475;52.464;13.590;2023-03-20T03:53:58;15.43;;;9.40;;
71626;SDS011;59475;52.464;13.590;2023-03-20T03:56:28;14.15;;;8.90;;
71626;SDS011;59475;52.464;13.590;2023-03-20T03:58:58;12.70;;;9.45;;
71626;SDS011;59475;52.464;13.590;2023-03-20T04:01:28;12.07;;;9.40;;
71626;SDS011;59475;52.464;13.590;2023-03-20T04:03:59;11.57;;;9.13;;
71626;SDS011;59475;52.464;13.590;2023-03-20T04:06:27;12.45;;;8.75;;
71626;SDS011;59475;52.464;13.590;2023-03-20T04:08:52;10.90;;;8.38;;
71626;SDS011;59475;52.464;13.590;2023-03-20T04:11:19;14.10;;;9.00;;
71626;SDS011;59475;52.464;13.590;2023-03-20T04:13:48;11.93;;;8.88;;
71626;SDS011;59475;52.464;13.590;2023-03-20T04:16:15;11.10;;;8.13;;
71626;SDS011;59475;52.464;13.590;2023-03-20T04:18:42;13.00;;;8.25;;
71626;SDS011;59475;52.464;13.590;2023-03-20T04:21:09;10.23;;;9.13;;
71626;SDS011;59475;52.464;13.590;2023-03-20T04:23:37;13.50;;;8.93;;
71626;SDS011;59475;52.464;13.590;2023-03-20T04:26:03;10.65;;;8.02;;
71626;SDS011;59475;52.464;13.590;2023-03-20T04:28:29;12.07;;;8.68;;
71626;SDS011;59475;52.464;13.590;2023-03-20T04:30:55;12.23;;;8.27;;
71626;SDS011;59475;52.464;13.590;2023-03-20T04:33:22;11.52;;;9.02;;
71626;SDS011;59475;52.464;13.590;2023-03-20T04:35:48;13.77;;;8.63;;
71626;SDS011;59475;52.464;13.590;2023-03-20T04:38:14;13.43;;;9.67;;
71626;SDS011;59475;52.464;13.590;2023-03-20T04:40:40;14.18;;;9.13;;
71626;SDS011;59475;52.464;13.590;2023-03-20T04:43:06;10.97;;;9.00;;
71626;SDS011;59475;52.464;13.590;2023-03-20T04:45:31;12.77;;;9.07;;
71626;SDS011;59475;52.464;13.590;2023-03-20T04:47:56;11.50;;;8.53;;
71626;SDS011;59475;52.464;13.590;2023-03-20T04:50:22;12.93;;;9.43;;
71626;SDS011;59475;52.464;13.590;2023-03-20T04:52:48;11.05;;;8.45;;
71626;SDS011;59475;52.464;13.590;2023-03-20T04:55:13;8.80;;;7.63;;
71626;SDS011;59475;52.464;13.590;2023-03-20T04:57:39;11.27;;;8.60;;
71626;SDS011;59475;52.464;13.590;2023-03-20T05:00:05;13.20;;;8.80;;
71626;SDS011;59475;52.464;13.590;2023-03-20T05:02:31;13.75;;;9.38;;
71626;SDS011;59475;52.464;13.590;2023-03-20T05:04:56;10.50;;;8.90;;
71626;SDS011;59475;52.464;13.590;2023-03-20T05:07:21;11.63;;;8.40;;
71626;SDS011;59475;52.464;13.590;2023-03-20T05:09:47;12.67;;;8.93;;
71626;SDS011;59475;52.464;13.590;2023-03-20T05:12:12;19.05;;;9.50;;
71626;SDS011;59475;52.464;13.590;2023-03-20T05:14:38;11.70;;;8.17;;
71626;SDS011;59475;52.464;13.590;2023-03-20T05:17:03;12.63;;;8.73;;
71626;SDS011;59475;52.464;13.590;2023-03-20T05:19:29;14.47;;;9.70;;
71626;SDS011;59475;52.464;13.590;2023-03-20T05:21:54;10.10;;;8.50;;
71626;SDS011;59475;52.464;13.590;2023-03-20T05:24:20;14.50;;;9.27;;
71626;SDS011;59475;52.464;13.590;2023-03-20T05:26:45;11.73;;;8.95;;
71626;SDS011;59475;52.464;13.590;2023-03-20T05:29:11;12.53;;;8.87;;
71626;SDS011;59475;52.464;13.590;2023-03-20T05:31:36;14.50;;;9.10;;
71626;SDS011;59475;52.464;13.590;2023-03-20T05:34:02;12.50;;;8.80;;
71626;SDS011;59475;52.464;13.590;2023-03-20T05:36:27;11.57;;;8.45;;
71626;SDS011;59475;52.464;13.590;2023-03-20T05:38:53;13.83;;;8.57;;
71626;SDS011;59475;52.464;13.590;2023-03-20T05:41:18;12.63;;;8.47;;
71626;SDS011;59475;52.464;13.590;2023-03-20T05:43:43;10.13;;;8.50;;
71626;SDS011;59475;52.464;13.590;2023-03-20T05:46:09;11.15;;;8.52;;
71626;SDS011;59475;52.464;13.590;2023-03-20T05:48:34;16.77;;;8.60;;
71626;SDS011;59475;52.464;13.590;2023-03-20T05:51:01;10.43;;;7.85;;
71626;SDS011;59475;52.464;13.590;2023-03-20T05:53:26;12.10;;;8.27;;
71626;SDS011;59475;52.464;13.590;2023-03-20T05:55:52;12.20;;;8.80;;
71626;SDS011;59475;52.464;13.590;2023-03-20T05:58:17;15.35;;;9.48;;
71626;SDS011;59475;52.464;13.590;2023-03-20T06:00:42;12.13;;;9.20;;
71626;SDS011;59475;52.464;13.590;2023-03-20T06:03:08;13.03;;;8.93;;
71626;SDS011;59475;52.464;13.590;2023-03-20T06:05:34;12.70;;;9.63;;
71626;SDS011;59475;52.464;13.590;2023-03-20T06:07:59;13.47;;;9.70;;
71626;SDS011;59475;52.464;13.590;2023-03-20T06:10:25;14.77;;;10.27;;
71626;SDS011;59475;52.464;13.590;2023-03-20T06:12:51;17.75;;;10.88;;
71626;SDS011;59475;52.464;13.590;2023-03-20T06:15:17;14.60;;;10.80;;
71626;SDS011;59475;52.464;13.590;2023-03-20T06:17:42;14.57;;;10.73;;
71626;SDS011;59475;52.464;13.590;2023-03-20T06:20:08;14.53;;;10.10;;
71626;SDS011;59475;52.464;13.590;2023-03-20T06:22:34;14.35;;;10.15;;
71626;SDS011;59475;52.464;13.590;2023-03-20T06:24:59;12.10;;;10.47;;
71626;SDS011;59475;52.464;13.590;2023-03-20T06:27:25;13.70;;;10.18;;
71626;SDS011;59475;52.464;13.590;2023-03-20T06:29:51;14.63;;;9.75;;
71626;SDS011;59475;52.464;13.590;2023-03-20T06:32:16;13.60;;;9.63;;
71626;SDS011;59475;52.464;13.590;2023-03-20T06:34:42;13.60;;;9.97;;
71626;SDS011;59475;52.464;13.590;2023-03-20T06:37:07;12.97;;;10.07;;
71626;SDS011;59475;52.464;13.590;2023-03-20T06:39:32;14.47;;;9.77;;
71626;SDS011;59475;52.464;13.590;2023-03-20T06:41:58;13.40;;;10.38;;
71626;SDS011;59475;52.464;13.590;2023-03-20T06:44:24;15.07;;;10.60;;
71626;SDS011;59475;52.464;13.590;2023-03-20T06:46:51;16.95;;;10.65;;
71626;SDS011;59475;52.464;13.590;2023-03-20T06:49:16;14.13;;;10.27;;
71626;SDS011;59475;52.464;13.590;2023-03-20T06:51:42;16.35;;;9.93;;
71626;SDS011;59475;52.464;13.590;2023-03-20T06:54:07;14.70;;;10.20;;
71626;SDS011;59475;52.464;13.590;2023-03-20T06:56:32;25.43;;;15.87;;
71626;SDS011;59475;52.464;13.590;2023-03-20T06:58:58;29.53;;;18.43;;
71626;SDS011;59475;52.464;13.590;2023-03-20T07:01:23;31.15;;;19.30;;
71626;SDS011;59475;52.464;13.590;2023-03-20T07:03:50;33.13;;;19.83;;
71626;SDS011;59475;52.464;13.590;2023-03-20T07:06:15;39.00;;;23.17;;
71626;SDS011;59475;52.464;13.590;2023-03-20T07:08:42;42.00;;;23.60;;
71626;SDS011;59475;52.464;13.590;2023-03-20T07:11:08;35.00;;;20.33;;
71626;SDS011;59475;52.464;13.590;2023-03-20T07:13:34;33.15;;;19.88;;
71626;SDS011;59475;52.464;13.590;2023-03-20T07:16:00;29.53;;;18.27;;
71626;SDS011;59475;52.464;13.590;2023-03-20T07:18:26;33.95;;;21.08;;
71626;SDS011;59475;52.464;13.590;2023-03-20T07:20:52;38.53;;;20.73;;
71626;SDS011;59475;52.464;13.590;2023-03-20T07:23:19;36.20;;;20.05;;
71626;SDS011;59475;52.464;13.590;2023-03-20T07:25:44;42.27;;;21.40;;
71626;SDS011;59475;52.464;13.590;2023-03-20T07:28:11;49.60;;;27.13;;
71626;SDS011;59475;52.464;13.590;2023-03-20T07:30:36;46.80;;;23.80;;
71626;SDS011;59475;52.464;13.590;2023-03-20T07:33:01;39.87;;;22.13;;
71626;SDS011;59475;52.464;13.590;2023-03-20T07:35:27;41.77;;;22.43;;
71626;SDS011;59475;52.464;13.590;2023-03-20T07:37:52;39.97;;;21.70;;
71626;SDS011;59475;52.464;13.590;2023-03-20T07:40:18;41.50;;;22.15;;
71626;SDS011;59475;52.464;13.590;2023-03-20T07:42:43;48.57;;;24.07;;
71626;SDS011;59475;52.464;13.590;2023-03-20T07:45:11;46.53;;;22.13;;
71626;SDS011;59475;52.464;13.590;2023-03-20T07:47:37;45.23;;;22.30;;
71626;SDS011;59475;52.464;13.590;2023-03-20T07:50:03;49.22;;;23.05;;
71626;SDS011;59475;52.464;13.590;2023-03-20T07:52:30;49.90;;;24.70;;
71626;SDS011;59475;52.464;13.590;2023-03-20T07:54:55;45.72;;;23.15;;
71626;SDS011;59475;52.464;13.590;2023-03-20T07:57:20;41.90;;;23.30;;
71626;SDS011;59475;52.464;13.590;2023-03-20T07:59:46;46.10;;;21.57;;
71626;SDS011;59475;52.464;13.590;2023-03-20T08:02:14;49.87;;;23.17;;
71626;SDS011;59475;52.464;13.590;2023-03-20T08:04:42;45.38;;;20.20;;
71626;SDS011;59475;52.464;13.590;2023-03-20T08:07:08;39.60;;;19.83;;
71626;SDS011;59475;52.464;13.590;2023-03-20T08:09:33;43.57;;;21.47;;
71626;SDS011;59475;52.464;13.590;2023-03-20T08:11:59;43.25;;;21.83;;
71626;SDS011;59475;52.464;13.590;2023-03-20T08:14:24;51.57;;;22.53;;
71626;SDS011;59475;52.464;13.590;2023-03-20T08:16:50;45.70;;;22.20;;
71626;SDS011;59475;52.464;13.590;2023-03-20T08:19:15;46.00;;;22.03;;
71626;SDS011;59475;52.464;13.590;2023-03-20T08:21:41;43.87;;;20.90;;
71626;SDS011;59475;52.464;13.590;2023-03-20T08:24:06;44.87;;;22.10;;
71626;SDS011;59475;52.464;13.590;2023-03-20T08:26:32;46.85;;;21.15;;
71626;SDS011;59475;52.464;13.590;2023-03-20T08:28:59;42.45;;;19.85;;
71626;SDS011;59475;52.464;13.590;2023-03-20T08:31:25;42.97;;;20.00;;
71626;SDS011;59475;52.464;13.590;2023-03-20T08:33:50;36.57;;;18.93;;
71626;SDS011;59475;52.464;13.590;2023-03-20T08:36:16;36.72;;;18.83;;
71626;SDS011;59475;52.464;13.590;2023-03-20T08:38:44;39.90;;;18.23;;
71626;SDS011;59475;52.464;13.590;2023-03-20T08:41:11;38.20;;;15.53;;
71626;SDS011;59475;52.464;13.590;2023-03-20T08:43:37;34.75;;;16.75;;
71626;SDS011;59475;52.464;13.590;2023-03-20T08:46:02;32.53;;;16.03;;
71626;SDS011;59475;52.464;13.590;2023-03-20T08:48:28;39.53;;;17.67;;
71626;SDS011;59475;52.464;13.590;2023-03-20T08:50:53;39.37;;;18.77;;
71626;SDS011;59475;52.464;13.590;2023-03-20T08:53:19;37.23;;;17.90;;
71626;SDS011;59475;52.464;13.590;2023-03-20T08:55:48;33.78;;;16.73;;
71626;SDS011;59475;52.464;13.590;2023-03-20T08:58:15;39.63;;;19.37;;
71626;SDS011;59475;52.464;13.590;2023-03-20T09:00:40;39.08;;;19.00;;
71626;SDS011;59475;52.464;13.590;2023-03-20T09:03:06;41.37;;;19.07;;
71626;SDS011;59475;52.464;13.590;2023-03-20T09:05:35;41.45;;;19.55;;
71626;SDS011;59475;52.464;13.590;2023-03-20T09:08:01;42.55;;;19.98;;
71626;SDS011;59475;52.464;13.590;2023-03-20T09:10:26;43.43;;;18.83;;
71626;SDS011;59475;52.464;13.590;2023-03-20T09:12:51;40.63;;;18.57;;
71626;SDS011;59475;52.464;13.590;2023-03-20T09:15:17;34.97;;;18.30;;
71626;SDS011;59475;52.464;13.590;2023-03-20T09:17:42;35.10;;;17.20;;
71626;SDS011;59475;52.464;13.590;2023-03-20T09:20:08;29.47;;;14.70;;
71626;SDS011;59475;52.464;13.590;2023-03-20T09:22:34;28.13;;;13.80;;
71626;SDS011;59475;52.464;13.590;2023-03-20T09:24:59;25.77;;;13.90;;
71626;SDS011;59475;52.464;13.590;2023-03-20T09:27:24;29.93;;;13.43;;
71626;SDS011;59475;52.464;13.590;2023-03-20T09:29:50;28.65;;;13.60;;
71626;SDS011;59475;52.464;13.590;2023-03-20T09:32:15;24.53;;;12.43;;
71626;SDS011;59475;52.464;13.590;2023-03-20T09:34:42;20.93;;;10.90;;
71626;SDS011;59475;52.464;13.590;2023-03-20T09:37:07;23.38;;;11.65;;
71626;SDS011;59475;52.464;13.590;2023-03-20T09:39:33;21.53;;;10.63;;
71626;SDS011;59475;52.464;13.590;2023-03-20T09:41:59;25.08;;;10.85;;
71626;SDS011;59475;52.464;13.590;2023-03-20T09:44:48;20.73;;;10.30;;
71626;SDS011;59475;52.464;13.590;2023-03-20T09:55:35;19.17;;;8.83;;
71626;SDS011;59475;52.464;13.590;2023-03-20T09:58:03;16.70;;;9.20;;
71626;SDS011;59475;52.464;13.590;2023-03-20T10:00:34;17.77;;;9.20;;
71626;SDS011;59475;52.464;13.590;2023-03-20T10:03:04;19.92;;;9.30;;
71626;SDS011;59475;52.464;13.590;2023-03-20T10:05:36;17.92;;;8.77;;
71626;SDS011;59475;52.464;13.590;2023-03-20T10:08:09;16.93;;;8.30;;
71626;SDS011;59475;52.464;13.590;2023-03-20T10:13:38;14.95;;;8.02;;
71626;SDS011;59475;52.464;13.590;2023-03-20T10:16:25;17.38;;;7.97;;
71626;SDS011;59475;52.464;13.590;2023-03-20T10:19:35;17.17;;;7.70;;
71626;SDS011;59475;52.464;13.590;2023-03-20T10:22:21;16.17;;;7.90;;
71626;SDS011;59475;52.464;13.590;2023-03-20T10:24:59;14.45;;;8.43;;
71626;SDS011;59475;52.464;13.590;2023-03-20T10:27:32;14.82;;;8.25;;
71626;SDS011;59475;52.464;13.590;2023-03-20T10:36:30;17.73;;;8.63;;
71626;SDS011;59475;52.464;13.590;2023-03-20T10:38:57;15.05;;;8.05;;
71626;SDS011;59475;52.464;13.590;2023-03-20T10:41:33;16.85;;;8.60;;
71626;SDS011;59475;52.464;13.590;2023-03-20T10:44:01;16.63;;;8.30;;
71626;SDS011;59475;52.464;13.590;2023-03-20T10:46:32;16.58;;;7.63;;
71626;SDS011;59475;52.464;13.590;2023-03-20T10:49:26;18.17;;;9.03;;
71626;SDS011;59475;52.464;13.590;2023-03-20T10:52:01;14.25;;;8.60;;
71626;SDS011;59475;52.464;13.590;2023-03-20T10:54:30;14.32;;;8.02;;
71626;SDS011;59475;52.464;13.590;2023-03-20T10:56:59;14.68;;;7.95;;
71626;SDS011;59475;52.464;13.590;2023-03-20T10:59:32;15.43;;;8.00;;
71626;SDS011;59475;52.464;13.590;2023-03-20T11:02:00;17.53;;;9.03;;
71626;SDS011;59475;52.464;13.590;2023-03-20T11:04:26;15.88;;;7.82;;
71626;SDS011;59475;52.464;13.590;2023-03-20T11:09:37;14.85;;;7.85;;
71626;SDS011;59475;52.464;13.590;2023-03-20T11:12:03;12.90;;;7.00;;
71626;SDS011;59475;52.464;13.590;2023-03-20T11:14:38;10.60;;;6.22;;
71626;SDS011;59475;52.464;13.590;2023-03-20T11:17:04;14.48;;;7.40;;
71626;SDS011;59475;52.464;13.590;2023-03-20T11:19:33;15.60;;;7.10;;
71626;SDS011;59475;52.464;13.590;2023-03-20T11:24:45;17.35;;;8.00;;
71626;SDS011;59475;52.464;13.590;2023-03-20T11:27:17;11.02;;;6.35;;
71626;SDS011;59475;52.464;13.590;2023-03-20T11:29:48;11.43;;;6.20;;
71626;SDS011;59475;52.464;13.590;2023-03-20T11:32:18;12.40;;;6.47;;
71626;SDS011;59475;52.464;13.590;2023-03-20T11:34:52;10.13;;;5.57;;
71626;SDS011;59475;52.464;13.590;2023-03-20T11:37:26;11.85;;;5.82;;
71626;SDS011;59475;52.464;13.590;2023-03-20T11:40:35;10.88;;;5.80;;
71626;SDS011;59475;52.464;13.590;2023-03-20T11:43:18;10.68;;;5.68;;
71626;SDS011;59475;52.464;13.590;2023-03-20T11:45:38;10.97;;;5.77;;
71626;SDS011;59475;52.464;13.590;2023-03-20T11:48:13;12.18;;;5.47;;
71626;SDS011;59475;52.464;13.590;2023-03-20T11:53:53;9.32;;;5.15;;
71626;SDS011;59475;52.464;13.590;2023-03-20T11:56:29;8.32;;;5.20;;
71626;SDS011;59475;52.464;13.590;2023-03-20T11:58:57;9.53;;;5.13;;
71626;SDS011;59475;52.464;13.590;2023-03-20T12:01:27;9.55;;;5.13;;
71626;SDS011;59475;52.464;13.590;2023-03-20T12:06:25;10.73;;;5.50;;
71626;SDS011;59475;52.464;13.590;2023-03-20T12:09:02;9.52;;;5.43;;
71626;SDS011;59475;52.464;13.590;2023-03-20T12:11:42;11.55;;;5.70;;
71626;SDS011;59475;52.464;13.590;2023-03-20T12:14:16;11.65;;;5.60;;
71626;SDS011;59475;52.464;13.590;2023-03-20T12:16:48;12.38;;;5.47;;
71626;SDS011;59475;52.464;13.590;2023-03-20T12:19:18;9.90;;;4.67;;
71626;SDS011;59475;52.464;13.590;2023-03-20T12:24:26;10.55;;;5.95;;
71626;SDS011;59475;52.464;13.590;2023-03-20T12:29:48;11.48;;;6.25;;
71626;SDS011;59475;52.464;13.590;2023-03-20T12:35:18;10.25;;;5.43;;
71626;SDS011;59475;52.464;13.590;2023-03-20T12:37:51;11.25;;;5.50;;
71626;SDS011;59475;52.464;13.590;2023-03-20T12:40:17;11.40;;;5.37;;
71626;SDS011;59475;52.464;13.590;2023-03-20T12:45:18;7.87;;;4.20;;
71626;SDS011;59475;52.464;13.590;2023-03-20T12:56:06;10.27;;;5.77;;
71626;SDS011;59475;52.464;13.590;2023-03-20T12:59:33;10.35;;;5.55;;
71626;SDS011;59475;52.464;13.590;2023-03-20T13:01:56;9.40;;;5.03;;
71626;SDS011;59475;52.464;13.590;2023-03-20T13:07:18;8.48;;;4.93;;
71626;SDS011;59475;52.464;13.590;2023-03-20T13:18:00;9.45;;;5.47;;
71626;SDS011;59475;52.464;13.590;2023-03-20T13:31:28;10.10;;;6.18;;
71626;SDS011;59475;52.464;13.590;2023-03-20T13:37:20;11.80;;;5.70;;
71626;SDS011;59475;52.464;13.590;2023-03-20T13:40:04;12.52;;;6.82;;
71626;SDS011;59475;52.464;13.590;2023-03-20T13:45:50;14.48;;;6.82;;
71626;SDS011;59475;52.464;13.590;2023-03-20T13:48:26;11.65;;;6.10;;
71626;SDS011;59475;52.464;13.590;2023-03-20T13:59:23;13.57;;;6.82;;
71626;SDS011;59475;52.464;13.590;2023-03-20T14:02:13;11.63;;;6.60;;
71626;SDS011;59475;52.464;13.590;2023-03-20T14:05:11;13.73;;;7.40;;
71626;SDS011;59475;52.464;13.590;2023-03-20T14:07:42;13.77;;;7.15;;
71626;SDS011;59475;52.464;13.590;2023-03-20T14:10:42;12.57;;;6.32;;
71626;SDS011;59475;52.464;13.590;2023-03-20T14:13:05;13.52;;;7.43;;
71626;SDS011;59475;52.464;13.590;2023-03-20T14:15:37;13.68;;;6.97;;
71626;SDS011;59475;52.464;13.590;2023-03-20T14:18:05;14.00;;;7.47;;
71626;SDS011;59475;52.464;13.590;2023-03-20T14:20:41;14.88;;;8.40;;
71626;SDS011;59475;52.464;13.590;2023-03-20T14:23:17;14.40;;;7.30;;
71626;SDS011;59475;52.464;13.590;2023-03-20T14:25:48;13.63;;;7.63;;
71626;SDS011;59475;52.464;13.590;2023-03-20T14:30:45;15.63;;;8.20;;
71626;SDS011;59475;52.464;13.590;2023-03-20T14:35:38;15.47;;;7.70;;
71626;SDS011;59475;52.464;13.590;2023-03-20T14:38:08;15.85;;;7.93;;
71626;SDS011;59475;52.464;13.590;2023-03-20T14:46:41;13.97;;;8.17;;
71626;SDS011;59475;52.464;13.590;2023-03-20T14:51:57;12.95;;;7.82;;
71626;SDS011;59475;52.464;13.590;2023-03-20T14:54:34;17.23;;;9.45;;
71626;SDS011;59475;52.464;13.590;2023-03-20T14:57:18;17.17;;;8.90;;
71626;SDS011;59475;52.464;13.590;2023-03-20T14:59:55;18.70;;;8.55;;
71626;SDS011;59475;52.464;13.590;2023-03-20T15:02:25;18.70;;;9.20;;
71626;SDS011;59475;52.464;13.590;2023-03-20T15:04:53;17.65;;;9.45;;
71626;SDS011;59475;52.464;13.590;2023-03-20T15:07:22;16.95;;;8.30;;
71626;SDS011;59475;52.464;13.590;2023-03-20T15:09:50;18.93;;;9.53;;
71626;SDS011;59475;52.464;13.590;2023-03-20T15:12:25;14.48;;;8.35;;
71626;SDS011;59475;52.464;13.590;2023-03-20T15:14:54;16.50;;;8.90;;
71626;SDS011;59475;52.464;13.590;2023-03-20T15:17:24;15.98;;;8.60;;
71626;SDS011;59475;52.464;13.590;2023-03-20T15:20:02;15.52;;;8.52;;
71626;SDS011;59475;52.464;13.590;2023-03-20T15:22:34;16.00;;;8.73;;
71626;SDS011;59475;52.464;13.590;2023-03-20T15:25:17;18.02;;;9.15;;
71626;SDS011;59475;52.464;13.590;2023-03-20T15:27:44;17.00;;;8.43;;
71626;SDS011;59475;52.464;13.590;2023-03-20T15:30:11;15.53;;;8.50;;
71626;SDS011;59475;52.464;13.590;2023-03-20T15:32:41;15.87;;;9.40;;
71626;SDS011;59475;52.464;13.590;2023-03-20T15:35:10;17.55;;;9.30;;
71626;SDS011;59475;52.464;13.590;2023-03-20T15:37:40;15.60;;;8.60;;
71626;SDS011;59475;52.464;13.590;2023-03-20T15:40:24;16.58;;;9.25;;
71626;SDS011;59475;52.464;13.590;2023-03-20T15:42:52;16.85;;;8.60;;
71626;SDS011;59475;52.464;13.590;2023-03-20T15:45:25;15.37;;;8.93;;
71626;SDS011;59475;52.464;13.590;2023-03-20T15:48:05;15.88;;;9.27;;
71626;SDS011;59475;52.464;13.590;2023-03-20T15:50:32;16.95;;;8.57;;
71626;SDS011;59475;52.464;13.590;2023-03-20T15:52:59;18.60;;;9.23;;
71626;SDS011;59475;52.464;13.590;2023-03-20T15:55:25;19.13;;;9.10;;
71626;SDS011;59475;52.464;13.590;2023-03-20T15:57:52;15.38;;;8.55;;
71626;SDS011;59475;52.464;13.590;2023-03-20T16:02:53;18.77;;;9.13;;
71626;SDS011;59475;52.464;13.590;2023-03-20T16:05:19;15.60;;;9.30;;
71626;SDS011;59475;52.464;13.590;2023-03-20T16:07:48;17.38;;;9.07;;
71626;SDS011;59475;52.464;13.590;2023-03-20T16:10:35;16.93;;;9.80;;
71626;SDS011;59475;52.464;13.590;2023-03-20T16:13:00;16.88;;;9.45;;
71626;SDS011;59475;52.464;13.590;2023-03-20T16:15:27;16.27;;;8.68;;
71626;SDS011;59475;52.464;13.590;2023-03-20T16:17:58;24.92;;;10.60;;
71626;SDS011;59475;52.464;13.590;2023-03-20T16:20:26;16.75;;;9.20;;
71626;SDS011;59475;52.464;13.590;2023-03-20T16:22:58;16.90;;;9.40;;
71626;SDS011;59475;52.464;13.590;2023-03-20T16:25:29;19.77;;;9.15;;
71626;SDS011;59475;52.464;13.590;2023-03-20T16:27:54;16.93;;;9.53;;
71626;SDS011;59475;52.464;13.590;2023-03-20T16:30:24;16.73;;;8.97;;
71626;SDS011;59475;52.464;13.590;2023-03-20T16:32:58;18.73;;;9.30;;
71626;SDS011;59475;52.464;13.590;2023-03-20T16:35:28;15.82;;;9.50;;
71626;SDS011;59475;52.464;13.590;2023-03-20T16:37:58;18.90;;;9.55;;
71626;SDS011;59475;52.464;13.590;2023-03-20T16:42:52;19.60;;;9.30;;
71626;SDS011;59475;52.464;13.590;2023-03-20T16:50:41;22.23;;;10.35;;
71626;SDS011;59475;52.464;13.590;2023-03-20T16:53:13;16.83;;;8.90;;
71626;SDS011;59475;52.464;13.590;2023-03-20T16:55:43;17.63;;;9.15;;
71626;SDS011;59475;52.464;13.590;2023-03-20T16:58:13;19.08;;;9.77;;
71626;SDS011;59475;52.464;13.590;2023-03-20T17:00:47;21.80;;;9.97;;
71626;SDS011;59475;52.464;13.590;2023-03-20T17:03:44;18.33;;;9.23;;
71626;SDS011;59475;52.464;13.590;2023-03-20T17:08:45;17.77;;;9.70;;